Time;durP1;ratioP1;P1;durP2;ratioP2;P2;SDS_P1;SDS_P2;PMS_P1;PMS_P2;Temp;Humidity;BMP_temperature;BMP_pressure;BME280_temperature;BME280_humidity;BME280_pressure;Samples;Min_cycle;Max_cycle;Signal;HPM_P1;HPM_P2
2024/04/14 00:00:49;;;;;;;7.03;1.98;;;;;;;19.08;39.25;101915.13;5299291;26;122172;-80
2024/04/14 00:03:17;;;;;;;3.90;2.13;;;;;;;19.03;39.51;101925.28;5266090;26;122835;-80
2024/04/14 00:05:45;;;;;;;4.65;1.80;;;;;;;18.99;39.49;101931.81;5278824;26;112513;-81
2024/04/14 00:08:12;;;;;;;5.25;1.95;;;;;;;18.94;39.76;101933.91;5273753;26;113839;-81
2024/04/14 00:10:40;;;;;;;5.50;1.90;;;;;;;18.88;40.07;101923.56;5257099;26;122405;-80
2024/04/14 00:13:07;;;;;;;8.07;2.10;;;;;;;18.84;40.22;101937.19;5299949;26;122737;-79
2024/04/14 00:15:35;;;;;;;6.20;2.17;;;;;;;18.80;40.30;101932.09;5256539;26;111474;-80
2024/04/14 00:18:02;;;;;;;8.40;2.28;;;;;;;18.76;40.26;101935.88;5251006;26;112446;-79
2024/04/14 00:20:30;;;;;;;4.32;2.00;;;;;;;18.72;40.67;101937.91;5248809;26;122134;-80
2024/04/14 00:22:59;;;;;;;6.68;2.30;;;;;;;18.68;40.76;101928.31;5265923;26;122274;-80
2024/04/14 00:25:26;;;;;;;5.68;2.15;;;;;;;18.64;40.65;101926.78;5255606;26;113907;-80
2024/04/14 00:27:53;;;;;;;6.13;2.60;;;;;;;18.59;40.31;101934.25;5295565;26;112288;-80
2024/04/14 00:30:21;;;;;;;4.20;2.20;;;;;;;18.55;40.82;101932.72;5292357;26;122514;-81
2024/04/14 00:32:50;;;;;;;5.18;2.10;;;;;;;18.51;40.66;101936.56;5272984;26;121654;-81
2024/04/14 00:35:17;;;;;;;5.53;2.20;;;;;;;18.45;40.66;101933.28;5258123;26;113206;-81
2024/04/14 00:37:45;;;;;;;6.15;2.35;;;;;;;18.41;41.37;101930.88;5281103;26;112432;-81
2024/04/14 00:40:12;;;;;;;7.65;2.38;;;;;;;18.36;41.29;101941.88;5278000;26;121878;-80
2024/04/14 00:42:39;;;;;;;5.63;2.10;;;;;;;18.31;41.42;101938.63;5236806;26;119895;-80
2024/04/14 00:45:07;;;;;;;5.28;2.58;;;;;;;18.26;41.57;101938.03;5280103;26;112301;-81
2024/04/14 00:47:34;;;;;;;7.20;2.40;;;;;;;18.22;41.45;101936.50;5270107;26;112077;-82
2024/04/14 00:50:03;;;;;;;7.25;2.40;;;;;;;18.18;41.44;101935.81;5291154;26;122561;-80
2024/04/14 00:52:31;;;;;;;7.43;2.40;;;;;;;18.16;41.82;101936.84;5263152;26;121010;-81
2024/04/14 00:54:59;;;;;;;7.90;2.63;;;;;;;18.12;42.10;101946.03;5284128;26;113297;-80
2024/04/14 00:57:29;;;;;;;6.97;2.38;;;;;;;18.11;41.99;101944.31;5281327;26;113469;-82
2024/04/14 00:59:57;;;;;;;9.50;2.60;;;;;;;18.07;42.08;101939.13;5282077;26;122289;-82
2024/04/14 01:02:24;;;;;;;6.68;2.42;;;;;;;18.04;42.19;101950.03;5284423;26;122208;-80
2024/04/14 01:04:51;;;;;;;6.57;2.50;;;;;;;18.01;42.53;101944.84;5289463;26;112626;-80
2024/04/14 01:07:19;;;;;;;9.10;2.53;;;;;;;18.00;42.30;101959.19;5246822;26;112425;-81
2024/04/14 01:09:48;;;;;;;6.93;2.60;;;;;;;17.97;42.46;101956.72;5291439;26;122355;-81
2024/04/14 01:12:15;;;;;;;6.93;2.50;;;;;;;17.95;42.54;101961.31;5281382;26;121284;-80
2024/04/14 01:14:43;;;;;;;9.13;2.67;;;;;;;17.92;43.14;101961.47;5263579;26;112576;-80
2024/04/14 01:17:10;;;;;;;10.82;3.05;;;;;;;17.89;42.95;101962.53;5252785;26;111407;-81
2024/04/14 01:19:38;;;;;;;10.52;2.90;;;;;;;17.86;43.02;101972.56;5270499;26;122274;-79
2024/04/14 01:22:05;;;;;;;6.93;2.60;;;;;;;17.81;43.32;101963.88;5255298;26;120281;-80
2024/04/14 01:24:33;;;;;;;8.15;2.90;;;;;;;17.76;43.49;101972.16;5292752;26;111496;-80
2024/04/14 01:27:00;;;;;;;7.78;2.70;;;;;;;17.74;43.45;101973.22;5258413;26;110420;-80
2024/04/14 01:29:27;;;;;;;6.00;2.60;;;;;;;17.70;43.66;101977.88;5279805;26;122220;-80
2024/04/14 01:31:55;;;;;;;7.30;2.65;;;;;;;17.65;44.16;101975.47;5270038;26;121216;-80
2024/04/14 01:34:22;;;;;;;12.07;3.13;;;;;;;17.62;43.81;101970.28;5251563;26;111733;-80
2024/04/14 01:36:50;;;;;;;8.55;2.85;;;;;;;17.60;44.15;101965.97;5278979;26;112142;-80
2024/04/14 01:39:17;;;;;;;8.43;2.47;;;;;;;17.57;44.37;101971.50;5283312;26;121404;-80
2024/04/14 01:41:45;;;;;;;7.90;2.80;;;;;;;17.55;44.36;101970.72;5248211;26;121893;-80
2024/04/14 01:44:14;;;;;;;11.70;3.22;;;;;;;17.50;44.65;101971.00;5268825;26;112326;-80
2024/04/14 01:46:41;;;;;;;9.15;3.00;;;;;;;17.48;44.69;101979.13;5274154;26;113321;-79
2024/04/14 01:49:08;;;;;;;8.00;3.05;;;;;;;17.45;44.95;101983.78;5245795;26;121590;-80
2024/04/14 01:51:36;;;;;;;9.10;3.30;;;;;;;17.42;44.92;101973.22;5251938;26;122361;-80
2024/04/14 01:54:03;;;;;;;9.93;3.30;;;;;;;17.39;45.28;101989.47;5288046;26;112721;-82
2024/04/14 01:56:30;;;;;;;10.57;3.38;;;;;;;17.37;45.32;101986.88;5285760;26;113127;-81
2024/04/14 01:58:58;;;;;;;12.70;3.58;;;;;;;17.37;45.31;101988.69;5259039;26;121975;-80
2024/04/14 02:01:25;;;;;;;8.07;2.90;;;;;;;17.36;45.56;101993.16;5300610;26;121509;-82
2024/04/14 02:03:52;;;;;;;7.88;3.22;;;;;;;17.34;45.80;101987.03;5300583;26;112579;-81
2024/04/14 02:06:20;;;;;;;7.95;3.00;;;;;;;17.32;45.79;101984.44;5286801;26;111135;-80
2024/04/14 02:08:51;;;;;;;10.35;3.13;;;;;;;17.31;46.04;101988.09;5299480;26;121522;-81
2024/04/14 02:11:18;;;;;;;12.80;3.42;;;;;;;17.29;45.88;101986.41;5270896;26;120170;-80
2024/04/14 02:13:46;;;;;;;7.95;3.25;;;;;;;17.25;45.90;101993.78;5291086;26;111976;-80
2024/04/14 02:16:13;;;;;;;12.00;3.42;;;;;;;17.21;46.46;102002.91;5261492;26;111506;-82
2024/04/14 02:18:40;;;;;;;8.75;3.45;;;;;;;17.20;46.41;101995.84;5289818;26;122202;-84
2024/04/14 02:21:08;;;;;;;9.70;3.58;;;;;;;17.18;46.48;101997.75;5285241;26;121930;-82
2024/04/14 02:23:38;;;;;;;12.13;3.40;;;;;;;17.17;46.85;101996.00;5287768;26;111995;-81
2024/04/14 02:26:07;;;;;;;12.25;3.88;;;;;;;17.17;46.90;102006.72;5272819;26;112486;-81
2024/04/14 02:28:34;;;;;;;12.43;3.70;;;;;;;17.15;47.31;102003.25;5295145;26;122853;-82
2024/04/14 02:31:01;;;;;;;10.60;3.97;;;;;;;17.15;47.29;102008.59;5288810;26;121984;-81
2024/04/14 02:33:29;;;;;;;8.85;3.58;;;;;;;17.14;47.58;102006.91;5271806;26;112270;-81
2024/04/14 02:35:58;;;;;;;11.30;3.80;;;;;;;17.12;47.62;102000.72;5258806;26;113082;-82
2024/04/14 02:38:26;;;;;;;12.15;3.80;;;;;;;17.09;47.63;102008.94;5270468;26;121924;-81
2024/04/14 02:41:01;;;;;;;7.70;3.65;;;;;;;17.06;47.88;102003.75;5279844;26;121850;-80
2024/04/14 02:43:30;;;;;;;10.75;3.33;;;;;;;17.04;47.59;102000.28;5277841;26;112677;-81
2024/04/14 02:45:57;;;;;;;10.27;3.60;;;;;;;17.02;48.11;102004.88;5298309;26;112536;-81
2024/04/14 02:48:27;;;;;;;9.32;3.25;;;;;;;17.00;48.26;102006.75;5289255;26;121645;-80
2024/04/14 02:50:54;;;;;;;12.57;3.40;;;;;;;16.98;48.53;102011.34;5272181;26;122959;-81
2024/04/14 02:53:22;;;;;;;13.60;3.58;;;;;;;16.98;48.41;102011.34;5269700;26;112094;-80
2024/04/14 02:55:50;;;;;;;8.65;3.75;;;;;;;16.97;48.31;102010.47;5298376;26;112631;-80
2024/04/14 02:58:17;;;;;;;10.40;3.60;;;;;;;16.96;48.46;102013.22;5269645;26;123133;-81
2024/04/14 03:00:44;;;;;;;14.95;3.67;;;;;;;16.95;48.41;102009.66;5266370;26;122140;-80
2024/04/14 03:03:12;;;;;;;14.65;5.45;;;;;;;16.95;48.54;102016.84;5279486;26;112286;-81
2024/04/14 03:05:39;;;;;;;8.05;3.50;;;;;;;16.93;48.47;102017.81;5279359;26;111380;-80
2024/04/14 03:08:07;;;;;;;9.45;3.53;;;;;;;16.91;48.96;102006.31;5296517;26;121318;-81
2024/04/14 03:10:34;;;;;;;9.55;3.08;;;;;;;16.90;48.75;102014.41;5271583;26;121250;-82
2024/04/14 03:13:02;;;;;;;10.20;3.47;;;;;;;16.89;48.85;102007.31;5256189;26;111058;-81
2024/04/14 03:15:30;;;;;;;10.80;3.33;;;;;;;16.86;48.92;102016.38;5288834;26;111929;-81
2024/04/14 03:17:58;;;;;;;9.50;3.22;;;;;;;16.85;48.81;102011.97;5264755;26;122128;-82
2024/04/14 03:20:25;;;;;;;8.65;3.30;;;;;;;16.84;48.90;102015.59;5252778;26;120806;-81
2024/04/14 03:22:53;;;;;;;10.85;3.60;;;;;;;16.84;49.13;102025.41;5290677;26;113437;-81
2024/04/14 03:25:23;;;;;;;9.43;3.22;;;;;;;16.82;48.92;102022.84;5275316;26;113739;-81
2024/04/14 03:27:51;;;;;;;11.35;3.20;;;;;;;16.81;49.12;102026.44;5219334;26;122608;-81
2024/04/14 03:30:19;;;;;;;10.25;3.30;;;;;;;16.80;48.85;102027.38;5246853;26;121162;-83
2024/04/14 03:32:46;;;;;;;10.13;3.13;;;;;;;16.76;49.30;102033.81;5248003;26;112848;-81
2024/04/14 03:35:14;;;;;;;9.68;3.70;;;;;;;16.72;49.15;102037.59;5275944;26;111431;-81
2024/04/14 03:37:41;;;;;;;11.82;3.30;;;;;;;16.69;49.46;102043.13;5268711;26;121249;-82
2024/04/14 03:40:09;;;;;;;12.77;3.85;;;;;;;16.66;49.50;102038.78;5241160;26;122468;-82
2024/04/14 03:42:36;;;;;;;9.95;3.42;;;;;;;16.61;49.57;102039.97;5256958;26;111530;-83
2024/04/14 03:45:07;;;;;;;11.00;3.08;;;;;;;16.59;49.29;102036.50;5260154;26;111109;-81
2024/04/14 03:47:35;;;;;;;7.22;3.00;;;;;;;16.54;49.40;102040.28;5264351;26;121802;-81
2024/04/14 03:50:04;;;;;;;7.93;3.20;;;;;;;16.49;49.30;102047.66;5270969;26;123351;-81
2024/04/14 03:52:31;;;;;;;9.98;2.92;;;;;;;16.44;49.19;102049.72;5288984;26;113058;-81
2024/04/14 03:54:59;;;;;;;10.65;3.05;;;;;;;16.40;49.84;102048.13;5276211;26;111731;-81
2024/04/14 03:57:27;;;;;;;13.18;3.58;;;;;;;16.37;49.52;102053.66;5280584;26;124003;-82
2024/04/14 03:59:54;;;;;;;10.80;3.28;;;;;;;16.35;49.55;102053.72;5283915;26;122217;-83
2024/04/14 04:02:21;;;;;;;9.10;3.65;;;;;;;16.33;49.51;102046.72;5298053;26;112501;-81
2024/04/14 04:04:48;;;;;;;9.88;3.13;;;;;;;16.29;49.54;102050.47;5290993;26;112250;-80
2024/04/14 04:07:16;;;;;;;13.05;2.97;;;;;;;16.25;49.39;102048.91;5297365;26;122906;-81
2024/04/14 04:09:43;;;;;;;8.85;2.85;;;;;;;16.21;49.61;102052.69;5300582;26;123294;-82
2024/04/14 04:12:11;;;;;;;11.23;2.95;;;;;;;16.17;49.46;102053.78;5294759;26;113635;-81
2024/04/14 04:14:38;;;;;;;12.75;3.15;;;;;;;16.14;49.56;102052.09;5274274;26;112836;-81
2024/04/14 04:17:05;;;;;;;9.02;2.75;;;;;;;16.11;49.42;102058.47;5290061;26;122627;-81
2024/04/14 04:19:32;;;;;;;9.48;2.83;;;;;;;16.10;49.70;102067.41;5263050;26;122696;-82
2024/04/14 04:22:01;;;;;;;9.38;2.60;;;;;;;16.10;49.76;102072.75;5306460;26;112274;-81
2024/04/14 04:24:28;;;;;;;8.10;3.00;;;;;;;16.09;49.90;102068.38;5292186;26;113412;-81
2024/04/14 04:26:55;;;;;;;8.15;2.67;;;;;;;16.09;49.86;102065.72;5280097;26;121248;-81
2024/04/14 04:29:27;;;;;;;9.38;2.70;;;;;;;16.08;49.66;102069.31;5289911;26;121033;-84
2024/04/14 04:31:55;;;;;;;8.70;2.42;;;;;;;16.06;49.82;102081.88;5266429;26;113003;-80
2024/04/14 04:34:23;;;;;;;12.27;2.70;;;;;;;16.05;49.92;102079.28;5284583;26;112676;-81
2024/04/14 04:36:50;;;;;;;6.05;2.45;;;;;;;16.02;49.82;102068.75;5289744;26;122319;-81
2024/04/14 04:39:18;;;;;;;7.20;2.30;;;;;;;15.99;49.76;102075.09;5291064;26;120767;-82
2024/04/14 04:41:45;;;;;;;8.48;2.55;;;;;;;15.99;50.01;102087.59;5258060;26;112129;-83
2024/04/14 04:44:13;;;;;;;9.88;3.28;;;;;;;15.98;49.74;102088.56;5250773;26;113382;-81
2024/04/14 04:46:40;;;;;;;7.40;2.50;;;;;;;15.95;49.71;102078.84;5275216;26;121834;-80
2024/04/14 04:49:07;;;;;;;8.80;2.53;;;;;;;15.92;49.82;102084.38;5267692;26;121077;-82
2024/04/14 04:51:35;;;;;;;7.15;2.65;;;;;;;15.90;49.97;102095.13;5268368;26;111494;-81
2024/04/14 04:54:05;;;;;;;7.85;2.35;;;;;;;15.88;49.99;102098.78;5266374;26;111557;-82
2024/04/14 04:56:32;;;;;;;8.55;2.35;;;;;;;15.85;49.89;102104.28;5283410;26;123551;-82
2024/04/14 04:58:59;;;;;;;8.30;2.38;;;;;;;15.84;50.10;102102.53;5260095;26;121075;-82
2024/04/14 05:01:27;;;;;;;5.75;2.53;;;;;;;15.82;49.87;102104.44;5281683;26;113915;-81
2024/04/14 05:03:54;;;;;;;6.75;2.10;;;;;;;15.82;50.24;102104.44;5290930;26;112505;-81
2024/04/14 05:06:22;;;;;;;9.65;2.33;;;;;;;15.81;49.98;102108.91;5296582;26;121008;-82
2024/04/14 05:08:49;;;;;;;5.03;2.08;;;;;;;15.81;49.89;102113.41;5274955;26;123206;-81
2024/04/14 05:11:17;;;;;;;6.22;1.90;;;;;;;15.79;50.11;102115.28;5289908;26;112751;-81
2024/04/14 05:13:44;;;;;;;7.00;2.03;;;;;;;15.77;50.29;102113.53;5278776;26;112267;-82
2024/04/14 05:16:12;;;;;;;7.30;1.80;;;;;;;15.74;49.79;102119.00;5250474;26;123215;-82
2024/04/14 05:18:39;;;;;;;7.72;2.00;;;;;;;15.75;49.95;102110.06;5269308;26;123071;-84
2024/04/14 05:21:07;;;;;;;9.25;1.98;;;;;;;15.74;50.18;102119.00;5306560;26;111863;-82
2024/04/14 05:23:35;;;;;;;8.40;2.67;;;;;;;15.73;49.95;102127.97;5271562;26;114032;-81
2024/04/14 05:26:02;;;;;;;6.85;2.20;;;;;;;15.73;49.81;102122.63;5287104;26;122675;-81
2024/04/14 05:28:29;;;;;;;7.47;2.38;;;;;;;15.71;50.03;102124.47;5274662;26;122804;-81
2024/04/14 05:30:57;;;;;;;6.20;1.67;;;;;;;15.70;49.88;102121.88;5240404;26;111837;-82
2024/04/14 05:33:24;;;;;;;7.40;1.85;;;;;;;15.69;49.85;102131.69;5252739;26;112210;-80
2024/04/14 05:35:53;;;;;;;5.07;1.90;;;;;;;15.69;50.38;102139.69;5268169;26;121328;-82
2024/04/14 05:38:20;;;;;;;7.47;1.95;;;;;;;15.70;50.22;102133.41;5251572;26;119961;-79
2024/04/14 05:40:48;;;;;;;4.90;1.73;;;;;;;15.71;50.16;102137.81;5264675;26;112512;-80
2024/04/14 05:43:15;;;;;;;5.90;1.85;;;;;;;15.72;49.95;102142.22;5264044;26;111457;-79
2024/04/14 05:45:43;;;;;;;7.60;1.90;;;;;;;15.72;50.16;102136.00;5238510;26;121051;-78
2024/04/14 05:48:10;;;;;;;9.32;2.00;;;;;;;15.72;49.91;102136.88;5251708;26;121573;-77
2024/04/14 05:50:38;;;;;;;6.50;1.60;;;;;;;15.71;50.05;102139.63;5291963;26;113683;-78
2024/04/14 05:53:05;;;;;;;10.43;2.58;;;;;;;15.70;50.15;102138.75;5275653;26;113970;-78
2024/04/14 05:55:32;;;;;;;7.28;1.90;;;;;;;15.70;49.97;102143.22;5297424;26;123273;-79
2024/04/14 05:58:00;;;;;;;10.55;1.90;;;;;;;15.71;50.06;102153.84;5252558;26;122721;-79
2024/04/14 06:00:28;;;;;;;8.32;1.73;;;;;;;15.70;50.06;102149.44;5272521;26;112937;-78
2024/04/14 06:02:56;;;;;;;8.52;1.80;;;;;;;15.70;50.04;102154.78;5243236;26;113056;-78
2024/04/14 06:05:24;;;;;;;7.53;1.92;;;;;;;15.72;50.03;102160.91;5275645;26;123338;-79
2024/04/14 06:07:51;;;;;;;7.28;1.75;;;;;;;15.72;50.18;102158.25;5267403;26;122536;-78
2024/04/14 06:10:18;;;;;;;7.30;1.98;;;;;;;15.73;50.11;102149.34;5259147;26;112785;-79
2024/04/14 06:12:46;;;;;;;9.82;2.10;;;;;;;15.76;50.06;102159.00;5234014;26;109725;-79
2024/04/14 06:15:13;;;;;;;14.18;1.95;;;;;;;15.79;49.69;102163.34;5260402;26;120238;-79
2024/04/14 06:17:41;;;;;;;11.55;2.20;;;;;;;15.81;49.86;102161.47;5255866;26;122186;-79
2024/04/14 06:20:08;;;;;;;9.32;2.22;;;;;;;15.81;49.96;102169.50;5277150;26;112485;-78
2024/04/14 06:22:36;;;;;;;7.18;1.65;;;;;;;15.84;49.66;102169.34;5273583;26;112250;-78
2024/04/14 06:25:03;;;;;;;4.63;1.38;;;;;;;15.85;49.51;102166.59;5290845;26;122875;-79
2024/04/14 06:27:31;;;;;;;7.57;1.80;;;;;;;15.87;49.69;102169.19;5285599;26;121424;-78
2024/04/14 06:29:58;;;;;;;10.43;1.85;;;;;;;15.91;49.46;102173.47;5219376;26;112698;-79
2024/04/14 06:32:26;;;;;;;7.93;2.42;;;;;;;15.93;49.71;102171.59;5273429;26;112859;-78
2024/04/14 06:34:53;;;;;;;6.88;1.77;;;;;;;15.97;49.36;102178.50;5292692;26;122072;-79
2024/04/14 06:37:20;;;;;;;13.68;2.28;;;;;;;16.00;49.35;102167.69;5268460;26;122178;-79
2024/04/14 06:39:49;;;;;;;6.22;2.05;;;;;;;16.03;49.02;102172.91;5269613;26;114529;-79
2024/04/14 06:42:17;;;;;;;12.15;2.25;;;;;;;16.06;49.00;102166.53;5282286;26;113265;-79
2024/04/14 06:44:44;;;;;;;7.03;2.05;;;;;;;16.08;48.87;102170.88;5285091;26;122963;-80
2024/04/14 06:47:11;;;;;;;9.50;1.90;;;;;;;16.10;49.07;102174.31;5289687;26;122906;-78
2024/04/14 06:49:39;;;;;;;8.90;1.50;;;;;;;16.13;48.56;102179.53;5277543;26;113564;-79
2024/04/14 06:52:06;;;;;;;4.45;1.55;;;;;;;16.18;48.34;102181.13;5281468;26;113196;-81
2024/04/14 06:54:33;;;;;;;7.40;1.77;;;;;;;16.21;48.18;102164.94;5294547;26;122117;-79
2024/04/14 06:57:02;;;;;;;9.23;1.80;;;;;;;16.25;48.37;102177.22;5280465;26;122506;-80
2024/04/14 06:59:29;;;;;;;8.65;1.95;;;;;;;16.24;48.08;102191.56;5276725;26;112512;-79
2024/04/14 07:01:56;;;;;;;8.98;1.60;;;;;;;16.25;48.16;102187.91;5255689;26;110433;-79
2024/04/14 07:04:24;;;;;;;7.07;1.85;;;;;;;16.26;48.14;102189.66;5255596;26;122020;-79
2024/04/14 07:06:51;;;;;;;7.95;1.80;;;;;;;16.27;47.93;102186.03;5282775;26;122191;-80
2024/04/14 07:09:19;;;;;;;7.20;1.50;;;;;;;16.26;47.67;102189.66;5246804;26;111990;-79
2024/04/14 07:11:46;;;;;;;8.95;1.73;;;;;;;16.26;47.46;102192.34;5270582;26;112233;-80
2024/04/14 07:14:13;;;;;;;7.38;1.70;;;;;;;16.25;47.45;102193.25;5276348;26;122381;-80
2024/04/14 07:16:41;;;;;;;8.20;1.90;;;;;;;16.28;47.31;102187.78;5285222;26;121935;-79
2024/04/14 07:19:08;;;;;;;5.47;1.40;;;;;;;16.31;47.12;102192.97;5285021;26;112907;-80
2024/04/14 07:21:36;;;;;;;8.35;1.77;;;;;;;16.37;47.25;102192.69;5291272;26;111669;-79
2024/04/14 07:24:04;;;;;;;6.82;1.50;;;;;;;16.41;46.91;102196.09;5281228;26;122363;-79
2024/04/14 07:26:33;;;;;;;6.05;1.42;;;;;;;16.43;46.69;102203.09;5293373;26;119273;-79
2024/04/14 07:29:00;;;;;;;4.35;1.20;;;;;;;16.43;46.50;102197.75;5256237;26;113803;-79
2024/04/14 07:31:27;;;;;;;5.45;1.30;;;;;;;16.43;46.58;102187.03;5285240;26;112747;-78
2024/04/14 07:34:04;;;;;;;6.43;1.33;;;;;;;16.45;46.90;102206.56;5276345;26;123237;-78
2024/04/14 07:36:32;;;;;;;7.78;1.50;;;;;;;16.49;46.79;102200.13;5255144;26;121963;-78
2024/04/14 07:38:59;;;;;;;6.85;1.75;;;;;;;16.55;46.66;102202.47;5276741;26;112357;-78
2024/04/14 07:41:27;;;;;;;8.00;2.13;;;;;;;16.62;46.70;102196.84;5276101;26;111047;-78
2024/04/14 07:43:54;;;;;;;7.57;1.90;;;;;;;16.69;46.58;102209.00;5256644;26;123119;-78
2024/04/14 07:46:25;;;;;;;8.02;1.38;;;;;;;16.73;46.58;102203.41;5282098;26;122452;-79
2024/04/14 07:48:53;;;;;;;6.25;1.10;;;;;;;16.76;46.26;102207.72;5279328;26;111879;-79
2024/04/14 07:51:21;;;;;;;10.30;1.30;;;;;;;16.78;46.07;102205.84;5290111;26;113249;-78
2024/04/14 07:53:48;;;;;;;8.20;1.92;;;;;;;16.82;45.98;102215.50;5288104;26;123267;-79
2024/04/14 07:56:15;;;;;;;5.47;1.40;;;;;;;16.87;45.76;102216.13;5254969;26;122147;-79
2024/04/14 07:58:43;;;;;;;7.13;1.20;;;;;;;16.91;45.98;102217.72;5260656;26;111125;-79
2024/04/14 08:01:11;;;;;;;7.15;1.25;;;;;;;16.98;45.79;102214.75;5277149;26;111953;-80
2024/04/14 08:03:38;;;;;;;5.95;1.40;;;;;;;17.04;45.21;102220.63;5281302;26;122245;-79
2024/04/14 08:06:19;;;;;;;5.53;1.35;;;;;;;17.09;45.34;102228.44;5290865;26;120914;-79
2024/04/14 08:08:47;;;;;;;5.53;1.27;;;;;;;17.12;44.92;102228.28;5287391;26;113799;-77
2024/04/14 08:11:14;;;;;;;3.63;1.65;;;;;;;17.15;45.12;102217.41;5284990;26;113342;-77
2024/04/14 08:13:42;;;;;;;7.45;1.23;;;;;;;17.18;45.15;102217.28;5265247;26;121595;-77
2024/04/14 08:16:09;;;;;;;4.43;1.33;;;;;;;17.25;44.64;102213.34;5277330;26;121860;-78
2024/04/14 08:18:37;;;;;;;5.28;1.30;;;;;;;17.35;44.87;102223.56;5271488;26;113142;-78
2024/04/14 08:21:04;;;;;;;5.57;1.33;;;;;;;17.43;44.60;102224.06;5298423;26;113465;-77
2024/04/14 08:23:32;;;;;;;6.88;1.70;;;;;;;17.51;44.62;102229.88;5301097;26;122865;-77
2024/04/14 08:26:02;;;;;;;4.53;1.30;;;;;;;17.55;44.56;102226.06;5274022;26;122449;-78
2024/04/14 08:28:30;;;;;;;6.68;1.48;;;;;;;17.65;44.40;102227.34;5289132;26;112670;-79
2024/04/14 08:30:57;;;;;;;3.05;1.13;;;;;;;17.70;44.12;102230.63;5283312;26;110084;-78
2024/04/14 08:33:24;;;;;;;6.00;1.50;;;;;;;17.78;44.21;102230.25;5261355;26;120164;-77
2024/04/14 08:35:52;;;;;;;6.40;1.40;;;;;;;17.89;44.13;102224.31;5293441;26;120818;-78
2024/04/14 08:38:19;;;;;;;4.20;1.40;;;;;;;18.04;44.06;102218.13;5306719;26;112961;-77
2024/04/14 08:40:51;;;;;;;6.68;1.30;;;;;;;18.18;43.94;102219.19;5273355;26;111758;-77
2024/04/14 08:43:19;;;;;;;4.70;1.33;;;;;;;18.25;43.27;102220.56;5270991;26;121561;-77
2024/04/14 08:45:47;;;;;;;4.05;1.27;;;;;;;18.30;43.17;102234.59;5263378;26;121519;-78
2024/04/14 08:48:17;;;;;;;4.72;1.38;;;;;;;18.29;43.11;102232.88;5253296;26;113489;-78
2024/04/14 08:50:46;;;;;;;6.20;1.20;;;;;;;18.33;42.69;102239.81;5296675;26;112804;-79
2024/04/14 08:53:21;;;;;;;3.53;1.38;;;;;;;18.34;43.11;102238.84;5281484;26;122525;-78
2024/04/14 08:55:48;;;;;;;8.30;1.77;;;;;;;18.37;42.96;102236.00;5230845;26;121918;-80
2024/04/14 08:58:17;;;;;;;6.97;1.60;;;;;;;18.42;43.17;102236.63;5275736;26;112675;-79
2024/04/14 09:00:52;;;;;;;2.97;0.98;;;;;;;18.53;42.63;102237.81;5260220;26;111281;-78
2024/04/14 09:03:22;;;;;;;8.75;1.63;;;;;;;18.60;42.19;102236.53;5266286;26;121099;-77
2024/04/14 09:05:50;;;;;;;3.13;1.02;;;;;;;18.68;41.66;102228.88;5290144;26;122849;-79
2024/04/14 09:08:18;;;;;;;4.43;1.10;;;;;;;18.74;41.72;102233.94;5303095;26;114044;-80
2024/04/14 09:10:45;;;;;;;5.32;1.15;;;;;;;18.82;41.48;102239.75;5286433;26;112332;-78
2024/04/14 09:13:13;;;;;;;5.40;1.40;;;;;;;18.94;41.51;102234.63;5272671;26;123392;-78
2024/04/14 09:15:40;;;;;;;6.07;1.42;;;;;;;19.05;41.04;102240.22;5294344;26;120253;-79
2024/04/14 09:18:08;;;;;;;3.28;1.25;;;;;;;19.11;41.01;102245.22;5288392;26;112214;-79
2024/04/14 09:20:36;;;;;;;4.03;1.00;;;;;;;19.18;40.79;102243.91;5249313;26;109996;-78
2024/04/14 09:23:03;;;;;;;3.35;0.90;;;;;;;19.23;40.48;102247.19;5292473;26;123082;-79
2024/04/14 09:25:33;;;;;;;5.85;1.23;;;;;;;19.34;40.56;102249.22;5284582;26;120998;-79
2024/04/14 09:28:10;;;;;;;4.43;1.13;;;;;;;19.43;40.59;102253.19;5303364;26;112040;-78
2024/04/14 09:30:38;;;;;;;3.50;1.23;;;;;;;19.47;40.47;102249.38;5289650;26;111701;-80
2024/04/14 09:33:06;;;;;;;2.60;1.45;;;;;;;19.51;39.80;102245.53;5283116;26;122928;-78
2024/04/14 09:35:34;;;;;;;2.63;1.13;;;;;;;19.59;39.92;102243.25;5283341;26;122391;-78
2024/04/14 09:38:01;;;;;;;5.35;1.40;;;;;;;19.65;39.34;102237.50;5269963;26;112814;-78
2024/04/14 09:40:31;;;;;;;6.10;1.20;;;;;;;19.71;39.48;102246.16;5271635;26;114201;-80
2024/04/14 09:43:00;;;;;;;2.90;1.33;;;;;;;19.75;39.52;102240.50;5259660;26;121547;-79
2024/04/14 09:45:30;;;;;;;4.15;1.52;;;;;;;19.79;39.29;102243.88;5285201;26;122324;-79
2024/04/14 09:47:58;;;;;;;2.50;1.00;;;;;;;19.82;39.72;102241.00;5276775;26;112628;-80
2024/04/14 09:50:27;;;;;;;4.88;1.40;;;;;;;19.89;39.54;102249.56;5286967;26;112382;-79
2024/04/14 09:52:56;;;;;;;4.00;1.25;;;;;;;19.94;39.47;102259.06;5277550;26;121964;-80
2024/04/14 09:55:24;;;;;;;6.43;1.60;;;;;;;19.95;39.52;102260.81;5254146;26;121958;-78
2024/04/14 09:57:51;;;;;;;4.43;1.30;;;;;;;19.97;39.33;102258.88;5276176;26;113451;-80
2024/04/14 10:00:19;;;;;;;2.30;1.10;;;;;;;19.97;39.07;102247.28;5244961;26;112572;-80
2024/04/14 10:02:57;;;;;;;8.48;1.55;;;;;;;19.92;39.03;102247.53;5267316;26;122157;-79
2024/04/14 10:05:26;;;;;;;4.40;1.10;;;;;;;19.92;39.11;102239.47;5292421;26;121414;-79
2024/04/14 10:07:54;;;;;;;5.43;1.42;;;;;;;19.95;39.35;102250.06;5287847;26;111927;-78
2024/04/14 10:10:24;;;;;;;6.35;1.48;;;;;;;19.95;39.14;102244.66;5264895;26;111536;-79
2024/04/14 10:12:52;;;;;;;6.55;1.67;;;;;;;19.95;39.36;102238.44;5279627;26;121071;-79
2024/04/14 10:15:24;;;;;;;9.35;1.98;;;;;;;19.96;39.20;102235.63;5281635;26;121180;-80
2024/04/14 10:18:10;;;;;;;7.45;1.45;;;;;;;19.96;39.21;102250.91;5283544;26;111998;-79
2024/04/14 10:20:44;;;;;;;4.95;1.38;;;;;;;19.93;38.46;102251.97;5290754;26;113374;-79
2024/04/14 10:23:17;;;;;;;3.65;1.42;;;;;;;19.91;38.34;102250.31;5282866;26;120834;-79
2024/04/14 10:25:49;;;;;;;4.18;1.30;;;;;;;19.89;38.29;102247.75;5286504;26;122514;-79
2024/04/14 10:28:22;;;;;;;4.00;1.30;;;;;;;19.92;37.79;102255.59;5289178;26;113079;-81
2024/04/14 10:31:00;;;;;;;4.28;1.45;;;;;;;19.89;37.68;102250.44;5278767;26;111595;-79
2024/04/14 10:33:28;;;;;;;2.88;1.08;;;;;;;19.92;37.79;102244.00;5283921;26;123163;-79
2024/04/14 10:36:03;;;;;;;4.00;1.10;;;;;;;19.97;38.05;102241.88;5257371;26;122566;-79
2024/04/14 10:38:32;;;;;;;4.00;1.20;;;;;;;20.07;37.70;102242.16;5286501;26;112708;-81
2024/04/14 10:41:01;;;;;;;4.97;1.48;;;;;;;20.13;37.65;102247.16;5275251;26;111364;-79
2024/04/14 10:43:29;;;;;;;4.32;1.20;;;;;;;20.17;37.52;102243.31;5300619;26;121301;-80
2024/04/14 10:46:01;;;;;;;8.15;1.35;;;;;;;20.21;37.46;102255.59;5281323;26;122464;-79
2024/04/14 10:48:30;;;;;;;7.75;1.52;;;;;;;20.25;37.85;102257.16;5250330;26;111188;-79
2024/04/14 10:51:01;;;;;;;7.53;1.25;;;;;;;20.23;37.47;102253.69;5291481;26;113866;-79
2024/04/14 10:53:29;;;;;;;4.55;1.35;;;;;;;20.25;37.55;102243.69;5290649;26;122072;-79
2024/04/14 10:55:56;;;;;;;5.28;1.20;;;;;;;20.28;37.37;102245.31;5280095;26;121907;-79
2024/04/14 10:58:27;;;;;;;7.65;1.80;;;;;;;20.26;37.63;102237.34;5284221;26;112364;-79
2024/04/14 11:00:55;;;;;;;5.30;1.20;;;;;;;20.25;37.46;102251.78;5273243;26;111750;-79
2024/04/14 11:03:23;;;;;;;2.90;1.38;;;;;;;20.20;37.19;102248.50;5248611;26;124064;-78
2024/04/14 11:05:51;;;;;;;5.05;1.30;;;;;;;20.18;37.45;102245.03;5253749;26;121826;-78
2024/04/14 11:08:19;;;;;;;7.63;1.30;;;;;;;20.21;37.62;102234.06;5282985;26;113192;-78
2024/04/14 11:10:49;;;;;;;5.80;1.55;;;;;;;20.28;37.12;102240.78;5277987;26;112364;-78
2024/04/14 11:13:19;;;;;;;3.63;1.10;;;;;;;20.32;37.12;102231.56;5256746;26;123299;-78
2024/04/14 11:15:46;;;;;;;2.90;1.23;;;;;;;20.37;37.35;102224.06;5274099;26;122864;-77
2024/04/14 11:18:14;;;;;;;2.45;1.30;;;;;;;20.45;37.26;102225.41;5279799;26;112086;-79
2024/04/14 11:20:47;;;;;;;4.22;1.30;;;;;;;20.51;37.14;102230.38;5270956;26;112674;-78